sensor_id;sensor_type;location;lat;lon;timestamp;P1;durP1;ratioP1;P2;durP2;ratioP2
4462;SDS011;2244;50.200;8.220;2023-07-02T00:00:03;18.50;;;3.00;;
4462;SDS011;2244;50.200;8.220;2023-07-02T00:02:31;21.10;;;2.93;;
4462;SDS011;2244;50.200;8.220;2023-07-02T00:04:59;20.03;;;3.10;;
4462;SDS011;2244;50.200;8.220;2023-07-02T00:07:26;19.10;;;2.80;;
4462;SDS011;2244;50.200;8.220;2023-07-02T00:09:55;21.23;;;3.10;;
4462;SDS011;2244;50.200;8.220;2023-07-02T00:12:22;19.33;;;2.70;;
4462;SDS011;2244;50.200;8.220;2023-07-02T00:14:50;27.13;;;3.27;;
4462;SDS011;2244;50.200;8.220;2023-07-02T00:17:19;25.70;;;3.07;;
4462;SDS011;2244;50.200;8.220;2023-07-02T00:19:47;21.37;;;3.07;;
4462;SDS011;2244;50.200;8.220;2023-07-02T00:22:16;18.27;;;3.00;;
4462;SDS011;2244;50.200;8.220;2023-07-02T00:24:45;19.53;;;3.63;;
4462;SDS011;2244;50.200;8.220;2023-07-02T00:27:13;20.10;;;3.90;;
4462;SDS011;2244;50.200;8.220;2023-07-02T00:29:40;26.93;;;3.50;;
4462;SDS011;2244;50.200;8.220;2023-07-02T00:32:08;22.30;;;3.60;;
4462;SDS011;2244;50.200;8.220;2023-07-02T00:34:35;22.40;;;3.40;;
4462;SDS011;2244;50.200;8.220;2023-07-02T00:37:03;21.57;;;3.30;;
4462;SDS011;2244;50.200;8.220;2023-07-02T00:39:30;24.17;;;3.60;;
4462;SDS011;2244;50.200;8.220;2023-07-02T00:42:04;22.27;;;3.37;;
4462;SDS011;2244;50.200;8.220;2023-07-02T00:44:31;20.80;;;3.27;;
4462;SDS011;2244;50.200;8.220;2023-07-02T00:46:59;21.97;;;3.40;;
4462;SDS011;2244;50.200;8.220;2023-07-02T00:49:26;20.90;;;3.20;;
4462;SDS011;2244;50.200;8.220;2023-07-02T00:51:54;20.70;;;3.33;;
4462;SDS011;2244;50.200;8.220;2023-07-02T00:54:22;20.80;;;3.27;;
4462;SDS011;2244;50.200;8.220;2023-07-02T00:56:50;19.70;;;2.90;;
4462;SDS011;2244;50.200;8.220;2023-07-02T00:59:17;22.33;;;3.40;;
4462;SDS011;2244;50.200;8.220;2023-07-02T01:01:45;20.73;;;3.80;;
4462;SDS011;2244;50.200;8.220;2023-07-02T01:04:16;24.13;;;3.57;;
4462;SDS011;2244;50.200;8.220;2023-07-02T01:06:43;22.57;;;3.60;;
4462;SDS011;2244;50.200;8.220;2023-07-02T01:09:11;21.30;;;3.37;;
4462;SDS011;2244;50.200;8.220;2023-07-02T01:11:57;25.37;;;3.67;;
4462;SDS011;2244;50.200;8.220;2023-07-02T01:14:22;23.93;;;4.10;;
4462;SDS011;2244;50.200;8.220;2023-07-02T01:16:49;20.50;;;3.33;;
4462;SDS011;2244;50.200;8.220;2023-07-02T01:19:37;21.47;;;3.30;;
4462;SDS011;2244;50.200;8.220;2023-07-02T01:22:01;20.40;;;3.80;;
4462;SDS011;2244;50.200;8.220;2023-07-02T01:24:29;22.37;;;3.57;;
4462;SDS011;2244;50.200;8.220;2023-07-02T01:26:57;21.47;;;3.70;;
4462;SDS011;2244;50.200;8.220;2023-07-02T01:29:28;21.83;;;3.57;;
4462;SDS011;2244;50.200;8.220;2023-07-02T01:31:55;22.47;;;4.37;;
4462;SDS011;2244;50.200;8.220;2023-07-02T01:34:23;24.70;;;4.40;;
4462;SDS011;2244;50.200;8.220;2023-07-02T01:36:51;22.43;;;3.77;;
4462;SDS011;2244;50.200;8.220;2023-07-02T01:39:18;23.83;;;3.90;;
4462;SDS011;2244;50.200;8.220;2023-07-02T01:41:52;23.00;;;3.83;;
4462;SDS011;2244;50.200;8.220;2023-07-02T01:44:20;20.60;;;3.67;;
4462;SDS011;2244;50.200;8.220;2023-07-02T01:46:48;22.90;;;4.07;;
4462;SDS011;2244;50.200;8.220;2023-07-02T01:49:16;22.87;;;4.30;;
4462;SDS011;2244;50.200;8.220;2023-07-02T01:51:49;20.83;;;4.20;;
4462;SDS011;2244;50.200;8.220;2023-07-02T01:54:17;22.00;;;3.83;;
4462;SDS011;2244;50.200;8.220;2023-07-02T01:56:45;21.53;;;3.73;;
4462;SDS011;2244;50.200;8.220;2023-07-02T01:59:13;21.30;;;4.10;;
4462;SDS011;2244;50.200;8.220;2023-07-02T02:01:40;25.47;;;3.50;;
4462;SDS011;2244;50.200;8.220;2023-07-02T02:04:08;21.17;;;3.50;;
4462;SDS011;2244;50.200;8.220;2023-07-02T02:06:37;23.00;;;4.10;;
4462;SDS011;2244;50.200;8.220;2023-07-02T02:09:05;22.00;;;3.87;;
4462;SDS011;2244;50.200;8.220;2023-07-02T02:11:33;27.30;;;4.90;;
4462;SDS011;2244;50.200;8.220;2023-07-02T02:14:01;21.50;;;3.80;;
4462;SDS011;2244;50.200;8.220;2023-07-02T02:16:28;22.30;;;4.23;;
4462;SDS011;2244;50.200;8.220;2023-07-02T02:18:56;22.30;;;4.30;;
4462;SDS011;2244;50.200;8.220;2023-07-02T02:21:23;29.10;;;4.77;;
4462;SDS011;2244;50.200;8.220;2023-07-02T02:23:51;23.00;;;4.47;;
4462;SDS011;2244;50.200;8.220;2023-07-02T02:26:18;27.13;;;4.80;;
4462;SDS011;2244;50.200;8.220;2023-07-02T02:28:48;25.87;;;5.07;;
4462;SDS011;2244;50.200;8.220;2023-07-02T02:31:15;26.00;;;5.50;;
4462;SDS011;2244;50.200;8.220;2023-07-02T02:33:43;22.40;;;4.30;;
4462;SDS011;2244;50.200;8.220;2023-07-02T02:36:10;24.40;;;6.50;;
4462;SDS011;2244;50.200;8.220;2023-07-02T02:38:38;22.53;;;5.20;;
4462;SDS011;2244;50.200;8.220;2023-07-02T02:41:06;27.40;;;4.60;;
4462;SDS011;2244;50.200;8.220;2023-07-02T02:43:35;30.03;;;4.83;;
4462;SDS011;2244;50.200;8.220;2023-07-02T02:46:02;24.63;;;5.27;;
4462;SDS011;2244;50.200;8.220;2023-07-02T02:48:30;29.80;;;6.10;;
4462;SDS011;2244;50.200;8.220;2023-07-02T02:50:57;26.43;;;5.83;;
4462;SDS011;2244;50.200;8.220;2023-07-02T02:53:25;27.60;;;5.80;;
4462;SDS011;2244;50.200;8.220;2023-07-02T02:55:53;30.43;;;6.13;;
4462;SDS011;2244;50.200;8.220;2023-07-02T02:58:20;30.70;;;7.30;;
4462;SDS011;2244;50.200;8.220;2023-07-02T03:00:49;28.87;;;6.37;;
4462;SDS011;2244;50.200;8.220;2023-07-02T03:03:18;26.20;;;5.87;;
4462;SDS011;2244;50.200;8.220;2023-07-02T03:05:47;25.20;;;6.67;;
4462;SDS011;2244;50.200;8.220;2023-07-02T03:08:15;29.70;;;7.47;;
4462;SDS011;2244;50.200;8.220;2023-07-02T03:10:42;23.00;;;6.67;;
4462;SDS011;2244;50.200;8.220;2023-07-02T03:13:10;26.67;;;7.00;;
4462;SDS011;2244;50.200;8.220;2023-07-02T03:15:37;26.10;;;7.37;;
4462;SDS011;2244;50.200;8.220;2023-07-02T03:18:05;32.33;;;7.47;;
4462;SDS011;2244;50.200;8.220;2023-07-02T03:20:33;27.23;;;8.20;;
4462;SDS011;2244;50.200;8.220;2023-07-02T03:23:00;29.30;;;8.23;;
4462;SDS011;2244;50.200;8.220;2023-07-02T03:25:28;31.63;;;8.03;;
4462;SDS011;2244;50.200;8.220;2023-07-02T03:27:55;24.97;;;8.13;;
4462;SDS011;2244;50.200;8.220;2023-07-02T03:30:23;28.50;;;9.20;;
4462;SDS011;2244;50.200;8.220;2023-07-02T03:32:50;31.77;;;8.50;;
4462;SDS011;2244;50.200;8.220;2023-07-02T03:35:18;28.93;;;8.30;;
4462;SDS011;2244;50.200;8.220;2023-07-02T03:37:45;31.10;;;8.93;;
4462;SDS011;2244;50.200;8.220;2023-07-02T03:40:13;34.80;;;10.10;;
4462;SDS011;2244;50.200;8.220;2023-07-02T03:42:40;28.67;;;9.63;;
4462;SDS011;2244;50.200;8.220;2023-07-02T03:45:07;33.17;;;10.43;;
4462;SDS011;2244;50.200;8.220;2023-07-02T03:47:35;32.37;;;11.10;;
4462;SDS011;2244;50.200;8.220;2023-07-02T03:50:03;31.07;;;11.57;;
4462;SDS011;2244;50.200;8.220;2023-07-02T03:52:31;36.27;;;11.33;;
4462;SDS011;2244;50.200;8.220;2023-07-02T03:54:58;31.00;;;10.80;;
4462;SDS011;2244;50.200;8.220;2023-07-02T03:57:26;41.50;;;12.40;;
4462;SDS011;2244;50.200;8.220;2023-07-02T03:59:53;35.43;;;12.47;;
4462;SDS011;2244;50.200;8.220;2023-07-02T04:02:21;34.03;;;10.70;;
4462;SDS011;2244;50.200;8.220;2023-07-02T04:04:48;33.00;;;11.63;;
4462;SDS011;2244;50.200;8.220;2023-07-02T04:07:16;34.40;;;11.73;;
4462;SDS011;2244;50.200;8.220;2023-07-02T04:09:44;29.93;;;11.67;;
4462;SDS011;2244;50.200;8.220;2023-07-02T04:12:11;35.10;;;11.77;;
4462;SDS011;2244;50.200;8.220;2023-07-02T04:14:38;32.20;;;10.93;;
4462;SDS011;2244;50.200;8.220;2023-07-02T04:17:06;34.20;;;11.50;;
4462;SDS011;2244;50.200;8.220;2023-07-02T04:19:33;33.67;;;12.40;;
4462;SDS011;2244;50.200;8.220;2023-07-02T04:22:01;31.77;;;11.73;;
4462;SDS011;2244;50.200;8.220;2023-07-02T04:24:29;34.67;;;11.80;;
4462;SDS011;2244;50.200;8.220;2023-07-02T04:26:57;36.40;;;12.93;;
4462;SDS011;2244;50.200;8.220;2023-07-02T04:29:27;32.30;;;12.40;;
4462;SDS011;2244;50.200;8.220;2023-07-02T04:31:55;33.33;;;11.23;;
4462;SDS011;2244;50.200;8.220;2023-07-02T04:34:23;33.43;;;12.27;;
4462;SDS011;2244;50.200;8.220;2023-07-02T04:36:50;43.90;;;12.80;;
4462;SDS011;2244;50.200;8.220;2023-07-02T04:39:19;36.50;;;12.03;;
4462;SDS011;2244;50.200;8.220;2023-07-02T04:41:47;32.07;;;11.60;;
4462;SDS011;2244;50.200;8.220;2023-07-02T04:44:17;30.67;;;11.37;;
4462;SDS011;2244;50.200;8.220;2023-07-02T04:46:44;30.27;;;11.50;;
4462;SDS011;2244;50.200;8.220;2023-07-02T04:49:12;29.03;;;11.90;;
4462;SDS011;2244;50.200;8.220;2023-07-02T04:51:39;33.20;;;11.60;;
4462;SDS011;2244;50.200;8.220;2023-07-02T04:54:07;35.73;;;12.93;;
4462;SDS011;2244;50.200;8.220;2023-07-02T04:56:34;32.40;;;11.20;;
4462;SDS011;2244;50.200;8.220;2023-07-02T04:59:02;34.43;;;10.83;;
4462;SDS011;2244;50.200;8.220;2023-07-02T05:01:29;37.93;;;13.23;;
4462;SDS011;2244;50.200;8.220;2023-07-02T05:03:57;34.93;;;12.63;;
4462;SDS011;2244;50.200;8.220;2023-07-02T05:06:24;37.30;;;12.90;;
4462;SDS011;2244;50.200;8.220;2023-07-02T05:08:52;33.70;;;12.70;;
4462;SDS011;2244;50.200;8.220;2023-07-02T05:11:19;40.73;;;13.10;;
4462;SDS011;2244;50.200;8.220;2023-07-02T05:13:47;33.83;;;11.80;;
4462;SDS011;2244;50.200;8.220;2023-07-02T05:16:14;33.77;;;12.43;;
4462;SDS011;2244;50.200;8.220;2023-07-02T05:18:42;31.70;;;12.07;;
4462;SDS011;2244;50.200;8.220;2023-07-02T05:21:09;36.37;;;12.50;;
4462;SDS011;2244;50.200;8.220;2023-07-02T05:23:37;33.73;;;12.00;;
4462;SDS011;2244;50.200;8.220;2023-07-02T05:26:04;33.00;;;12.27;;
4462;SDS011;2244;50.200;8.220;2023-07-02T05:28:32;35.30;;;11.97;;
4462;SDS011;2244;50.200;8.220;2023-07-02T05:31:00;33.83;;;13.40;;
4462;SDS011;2244;50.200;8.220;2023-07-02T05:33:27;32.53;;;13.00;;
4462;SDS011;2244;50.200;8.220;2023-07-02T05:35:55;27.97;;;13.43;;
4462;SDS011;2244;50.200;8.220;2023-07-02T05:38:22;28.90;;;12.53;;
4462;SDS011;2244;50.200;8.220;2023-07-02T05:40:50;30.67;;;12.27;;
4462;SDS011;2244;50.200;8.220;2023-07-02T05:43:18;32.80;;;12.47;;
4462;SDS011;2244;50.200;8.220;2023-07-02T05:45:45;33.17;;;12.80;;
4462;SDS011;2244;50.200;8.220;2023-07-02T05:48:13;35.20;;;12.70;;
4462;SDS011;2244;50.200;8.220;2023-07-02T05:50:40;36.27;;;15.03;;
4462;SDS011;2244;50.200;8.220;2023-07-02T05:53:08;34.57;;;12.63;;
4462;SDS011;2244;50.200;8.220;2023-07-02T05:55:36;33.93;;;13.37;;
4462;SDS011;2244;50.200;8.220;2023-07-02T05:58:06;28.13;;;12.00;;
4462;SDS011;2244;50.200;8.220;2023-07-02T06:00:33;31.20;;;12.70;;
4462;SDS011;2244;50.200;8.220;2023-07-02T06:03:01;32.70;;;13.33;;
4462;SDS011;2244;50.200;8.220;2023-07-02T06:05:29;34.90;;;12.47;;
4462;SDS011;2244;50.200;8.220;2023-07-02T06:07:56;29.10;;;12.97;;
4462;SDS011;2244;50.200;8.220;2023-07-02T06:10:24;30.13;;;13.00;;
4462;SDS011;2244;50.200;8.220;2023-07-02T06:12:51;32.07;;;13.20;;
4462;SDS011;2244;50.200;8.220;2023-07-02T06:15:19;32.30;;;12.90;;
4462;SDS011;2244;50.200;8.220;2023-07-02T06:17:46;33.43;;;14.77;;
4462;SDS011;2244;50.200;8.220;2023-07-02T06:20:14;30.33;;;13.27;;
4462;SDS011;2244;50.200;8.220;2023-07-02T06:22:41;30.80;;;14.27;;
4462;SDS011;2244;50.200;8.220;2023-07-02T06:25:09;32.67;;;13.87;;
4462;SDS011;2244;50.200;8.220;2023-07-02T06:27:36;32.77;;;13.50;;
4462;SDS011;2244;50.200;8.220;2023-07-02T06:30:04;33.57;;;14.53;;
4462;SDS011;2244;50.200;8.220;2023-07-02T06:32:32;31.90;;;13.40;;
4462;SDS011;2244;50.200;8.220;2023-07-02T06:35:00;31.67;;;12.80;;
4462;SDS011;2244;50.200;8.220;2023-07-02T06:37:27;29.37;;;12.60;;
4462;SDS011;2244;50.200;8.220;2023-07-02T06:39:55;39.10;;;13.00;;
4462;SDS011;2244;50.200;8.220;2023-07-02T06:42:24;28.97;;;13.47;;
4462;SDS011;2244;50.200;8.220;2023-07-02T06:44:51;35.67;;;14.90;;
4462;SDS011;2244;50.200;8.220;2023-07-02T06:47:19;35.80;;;13.90;;
4462;SDS011;2244;50.200;8.220;2023-07-02T06:49:47;34.60;;;13.57;;
4462;SDS011;2244;50.200;8.220;2023-07-02T06:52:14;33.50;;;14.37;;
4462;SDS011;2244;50.200;8.220;2023-07-02T06:54:42;38.97;;;14.27;;
4462;SDS011;2244;50.200;8.220;2023-07-02T06:57:09;31.67;;;13.73;;
4462;SDS011;2244;50.200;8.220;2023-07-02T06:59:37;29.60;;;12.20;;
4462;SDS011;2244;50.200;8.220;2023-07-02T07:02:04;33.37;;;13.00;;
4462;SDS011;2244;50.200;8.220;2023-07-02T07:04:32;35.30;;;13.87;;
4462;SDS011;2244;50.200;8.220;2023-07-02T07:07:01;34.50;;;13.73;;
4462;SDS011;2244;50.200;8.220;2023-07-02T07:09:32;34.67;;;13.50;;
4462;SDS011;2244;50.200;8.220;2023-07-02T07:11:59;29.97;;;14.13;;
4462;SDS011;2244;50.200;8.220;2023-07-02T07:14:27;32.00;;;13.30;;
4462;SDS011;2244;50.200;8.220;2023-07-02T07:16:54;29.03;;;13.77;;
4462;SDS011;2244;50.200;8.220;2023-07-02T07:19:22;36.47;;;14.30;;
4462;SDS011;2244;50.200;8.220;2023-07-02T07:21:49;29.63;;;14.00;;
4462;SDS011;2244;50.200;8.220;2023-07-02T07:24:17;33.37;;;13.80;;
4462;SDS011;2244;50.200;8.220;2023-07-02T07:26:44;33.70;;;15.00;;
4462;SDS011;2244;50.200;8.220;2023-07-02T07:29:12;32.67;;;13.50;;
4462;SDS011;2244;50.200;8.220;2023-07-02T07:31:40;28.97;;;12.80;;
4462;SDS011;2244;50.200;8.220;2023-07-02T07:34:07;30.77;;;14.10;;
4462;SDS011;2244;50.200;8.220;2023-07-02T07:36:36;30.80;;;12.93;;
4462;SDS011;2244;50.200;8.220;2023-07-02T07:39:03;31.97;;;13.53;;
4462;SDS011;2244;50.200;8.220;2023-07-02T07:41:31;34.53;;;13.60;;
4462;SDS011;2244;50.200;8.220;2023-07-02T07:43:59;28.83;;;12.53;;
4462;SDS011;2244;50.200;8.220;2023-07-02T07:46:27;33.57;;;13.50;;
4462;SDS011;2244;50.200;8.220;2023-07-02T07:48:55;28.93;;;14.83;;
4462;SDS011;2244;50.200;8.220;2023-07-02T07:51:22;33.00;;;13.33;;
4462;SDS011;2244;50.200;8.220;2023-07-02T07:53:50;31.70;;;13.10;;
4462;SDS011;2244;50.200;8.220;2023-07-02T07:56:17;27.53;;;12.80;;
4462;SDS011;2244;50.200;8.220;2023-07-02T07:58:45;29.70;;;11.90;;
4462;SDS011;2244;50.200;8.220;2023-07-02T08:01:12;34.40;;;12.93;;
4462;SDS011;2244;50.200;8.220;2023-07-02T08:03:39;28.33;;;12.93;;
4462;SDS011;2244;50.200;8.220;2023-07-02T08:06:07;35.50;;;13.17;;
4462;SDS011;2244;50.200;8.220;2023-07-02T08:08:35;33.33;;;13.97;;
4462;SDS011;2244;50.200;8.220;2023-07-02T08:11:03;45.60;;;33.27;;
4462;SDS011;2244;50.200;8.220;2023-07-02T08:13:30;33.63;;;13.27;;
4462;SDS011;2244;50.200;8.220;2023-07-02T08:15:58;30.30;;;12.83;;
4462;SDS011;2244;50.200;8.220;2023-07-02T08:18:26;30.40;;;13.00;;
4462;SDS011;2244;50.200;8.220;2023-07-02T08:20:53;31.33;;;13.97;;
4462;SDS011;2244;50.200;8.220;2023-07-02T08:23:21;32.50;;;13.20;;
4462;SDS011;2244;50.200;8.220;2023-07-02T08:25:48;30.40;;;12.50;;
4462;SDS011;2244;50.200;8.220;2023-07-02T08:28:16;26.33;;;11.90;;
4462;SDS011;2244;50.200;8.220;2023-07-02T08:30:43;29.93;;;13.07;;
4462;SDS011;2244;50.200;8.220;2023-07-02T08:33:10;24.80;;;11.43;;
4462;SDS011;2244;50.200;8.220;2023-07-02T08:35:38;26.93;;;11.80;;
4462;SDS011;2244;50.200;8.220;2023-07-02T08:38:06;25.70;;;11.40;;
4462;SDS011;2244;50.200;8.220;2023-07-02T08:40:34;23.57;;;10.73;;
4462;SDS011;2244;50.200;8.220;2023-07-02T08:43:02;26.40;;;10.60;;
4462;SDS011;2244;50.200;8.220;2023-07-02T08:45:30;23.87;;;10.60;;
4462;SDS011;2244;50.200;8.220;2023-07-02T08:47:58;25.33;;;10.87;;
4462;SDS011;2244;50.200;8.220;2023-07-02T08:50:26;29.57;;;12.07;;
4462;SDS011;2244;50.200;8.220;2023-07-02T08:52:54;26.80;;;10.60;;
4462;SDS011;2244;50.200;8.220;2023-07-02T08:55:21;26.20;;;11.00;;
4462;SDS011;2244;50.200;8.220;2023-07-02T08:57:49;31.20;;;16.40;;
4462;SDS011;2244;50.200;8.220;2023-07-02T09:00:18;26.43;;;12.47;;
4462;SDS011;2244;50.200;8.220;2023-07-02T09:02:46;30.60;;;13.17;;
4462;SDS011;2244;50.200;8.220;2023-07-02T09:05:13;31.53;;;13.30;;
4462;SDS011;2244;50.200;8.220;2023-07-02T09:07:49;28.40;;;13.40;;
4462;SDS011;2244;50.200;8.220;2023-07-02T09:10:28;31.13;;;13.67;;
4462;SDS011;2244;50.200;8.220;2023-07-02T09:13:06;30.67;;;16.23;;
4462;SDS011;2244;50.200;8.220;2023-07-02T09:15:36;29.23;;;12.40;;
4462;SDS011;2244;50.200;8.220;2023-07-02T09:18:13;30.80;;;13.40;;
4462;SDS011;2244;50.200;8.220;2023-07-02T09:20:32;30.10;;;11.83;;
4462;SDS011;2244;50.200;8.220;2023-07-02T09:23:00;25.80;;;11.80;;
4462;SDS011;2244;50.200;8.220;2023-07-02T09:25:35;28.67;;;12.77;;
4462;SDS011;2244;50.200;8.220;2023-07-02T09:28:11;29.00;;;13.13;;
4462;SDS011;2244;50.200;8.220;2023-07-02T09:30:31;30.43;;;13.07;;
4462;SDS011;2244;50.200;8.220;2023-07-02T09:33:05;31.47;;;13.53;;
4462;SDS011;2244;50.200;8.220;2023-07-02T09:35:28;38.10;;;15.97;;
4462;SDS011;2244;50.200;8.220;2023-07-02T09:37:56;40.27;;;13.77;;
4462;SDS011;2244;50.200;8.220;2023-07-02T09:40:23;33.63;;;13.40;;
4462;SDS011;2244;50.200;8.220;2023-07-02T09:42:52;31.57;;;16.23;;
4462;SDS011;2244;50.200;8.220;2023-07-02T09:45:19;31.63;;;13.23;;
4462;SDS011;2244;50.200;8.220;2023-07-02T09:47:49;29.83;;;14.40;;
4462;SDS011;2244;50.200;8.220;2023-07-02T09:50:18;28.57;;;13.70;;
4462;SDS011;2244;50.200;8.220;2023-07-02T09:52:47;29.70;;;11.70;;
4462;SDS011;2244;50.200;8.220;2023-07-02T09:55:15;34.87;;;15.27;;
4462;SDS011;2244;50.200;8.220;2023-07-02T09:57:43;28.23;;;11.33;;
4462;SDS011;2244;50.200;8.220;2023-07-02T10:00:11;32.30;;;13.03;;
4462;SDS011;2244;50.200;8.220;2023-07-02T10:02:39;30.67;;;11.37;;
4462;SDS011;2244;50.200;8.220;2023-07-02T10:05:06;27.87;;;11.33;;
4462;SDS011;2244;50.200;8.220;2023-07-02T10:07:34;24.50;;;9.90;;
4462;SDS011;2244;50.200;8.220;2023-07-02T10:10:02;26.10;;;13.67;;
4462;SDS011;2244;50.200;8.220;2023-07-02T10:12:30;27.17;;;9.50;;
4462;SDS011;2244;50.200;8.220;2023-07-02T10:14:58;26.47;;;11.57;;
4462;SDS011;2244;50.200;8.220;2023-07-02T10:17:26;22.67;;;9.60;;
4462;SDS011;2244;50.200;8.220;2023-07-02T10:19:56;24.57;;;11.10;;
4462;SDS011;2244;50.200;8.220;2023-07-02T10:22:24;34.23;;;12.60;;
4462;SDS011;2244;50.200;8.220;2023-07-02T10:24:58;26.77;;;11.57;;
4462;SDS011;2244;50.200;8.220;2023-07-02T10:27:41;24.27;;;9.87;;
4462;SDS011;2244;50.200;8.220;2023-07-02T10:30:10;29.03;;;16.73;;
4462;SDS011;2244;50.200;8.220;2023-07-02T10:32:37;26.67;;;10.37;;
4462;SDS011;2244;50.200;8.220;2023-07-02T10:35:15;24.90;;;10.30;;
4462;SDS011;2244;50.200;8.220;2023-07-02T10:37:35;27.00;;;15.63;;
4462;SDS011;2244;50.200;8.220;2023-07-02T10:40:04;25.87;;;10.37;;
4462;SDS011;2244;50.200;8.220;2023-07-02T10:42:48;26.80;;;10.87;;
4462;SDS011;2244;50.200;8.220;2023-07-02T10:45:16;27.03;;;11.80;;
4462;SDS011;2244;50.200;8.220;2023-07-02T10:47:44;26.80;;;11.87;;
4462;SDS011;2244;50.200;8.220;2023-07-02T10:50:18;26.03;;;10.10;;
4462;SDS011;2244;50.200;8.220;2023-07-02T10:52:46;30.63;;;10.90;;
4462;SDS011;2244;50.200;8.220;2023-07-02T10:55:23;29.13;;;11.10;;
4462;SDS011;2244;50.200;8.220;2023-07-02T10:58:01;28.70;;;10.37;;
4462;SDS011;2244;50.200;8.220;2023-07-02T11:00:19;25.07;;;10.90;;
4462;SDS011;2244;50.200;8.220;2023-07-02T11:02:48;28.57;;;10.20;;
4462;SDS011;2244;50.200;8.220;2023-07-02T11:05:15;27.43;;;11.17;;
4462;SDS011;2244;50.200;8.220;2023-07-02T11:07:43;23.10;;;11.50;;
4462;SDS011;2244;50.200;8.220;2023-07-02T11:10:17;23.47;;;10.00;;
4462;SDS011;2244;50.200;8.220;2023-07-02T11:12:40;27.37;;;12.83;;
4462;SDS011;2244;50.200;8.220;2023-07-02T11:15:08;24.93;;;10.67;;
4462;SDS011;2244;50.200;8.220;2023-07-02T11:17:35;27.80;;;10.57;;
4462;SDS011;2244;50.200;8.220;2023-07-02T11:20:04;27.53;;;11.40;;
4462;SDS011;2244;50.200;8.220;2023-07-02T11:22:32;25.43;;;11.67;;
4462;SDS011;2244;50.200;8.220;2023-07-02T11:27:40;29.13;;;11.67;;
4462;SDS011;2244;50.200;8.220;2023-07-02T11:30:07;26.87;;;15.00;;
4462;SDS011;2244;50.200;8.220;2023-07-02T11:32:46;25.43;;;10.17;;
4462;SDS011;2244;50.200;8.220;2023-07-02T11:35:04;26.33;;;11.27;;
4462;SDS011;2244;50.200;8.220;2023-07-02T11:37:32;24.30;;;11.50;;
4462;SDS011;2244;50.200;8.220;2023-07-02T11:40:00;27.93;;;10.60;;
4462;SDS011;2244;50.200;8.220;2023-07-02T11:42:29;27.97;;;11.60;;
4462;SDS011;2244;50.200;8.220;2023-07-02T11:44:56;28.27;;;12.50;;
4462;SDS011;2244;50.200;8.220;2023-07-02T11:47:23;29.50;;;11.20;;
4462;SDS011;2244;50.200;8.220;2023-07-02T11:49:51;26.63;;;11.70;;
4462;SDS011;2244;50.200;8.220;2023-07-02T11:52:19;26.77;;;12.50;;
4462;SDS011;2244;50.200;8.220;2023-07-02T11:54:46;27.03;;;13.17;;
4462;SDS011;2244;50.200;8.220;2023-07-02T11:57:14;25.43;;;11.50;;
4462;SDS011;2244;50.200;8.220;2023-07-02T11:59:42;28.00;;;13.00;;
4462;SDS011;2244;50.200;8.220;2023-07-02T12:02:09;28.40;;;11.63;;
4462;SDS011;2244;50.200;8.220;2023-07-02T12:04:37;25.90;;;11.93;;
4462;SDS011;2244;50.200;8.220;2023-07-02T12:07:06;25.70;;;10.60;;
4462;SDS011;2244;50.200;8.220;2023-07-02T12:09:33;28.90;;;13.63;;
4462;SDS011;2244;50.200;8.220;2023-07-02T12:12:01;24.57;;;11.43;;
4462;SDS011;2244;50.200;8.220;2023-07-02T12:14:28;25.87;;;11.93;;
4462;SDS011;2244;50.200;8.220;2023-07-02T12:16:56;28.77;;;11.67;;
4462;SDS011;2244;50.200;8.220;2023-07-02T12:19:23;25.07;;;11.03;;
4462;SDS011;2244;50.200;8.220;2023-07-02T12:21:51;26.83;;;11.33;;
4462;SDS011;2244;50.200;8.220;2023-07-02T12:24:18;28.77;;;12.93;;
4462;SDS011;2244;50.200;8.220;2023-07-02T12:26:46;26.77;;;12.70;;
4462;SDS011;2244;50.200;8.220;2023-07-02T12:29:14;29.40;;;12.47;;
4462;SDS011;2244;50.200;8.220;2023-07-02T12:31:41;29.50;;;12.83;;
4462;SDS011;2244;50.200;8.220;2023-07-02T12:34:09;28.80;;;11.87;;
4462;SDS011;2244;50.200;8.220;2023-07-02T12:36:36;34.00;;;11.00;;
4462;SDS011;2244;50.200;8.220;2023-07-02T12:39:03;32.23;;;11.50;;
4462;SDS011;2244;50.200;8.220;2023-07-02T12:41:31;30.73;;;15.53;;
4462;SDS011;2244;50.200;8.220;2023-07-02T12:43:58;31.10;;;12.67;;
4462;SDS011;2244;50.200;8.220;2023-07-02T12:46:26;27.77;;;11.33;;
4462;SDS011;2244;50.200;8.220;2023-07-02T12:48:53;29.03;;;14.93;;
4462;SDS011;2244;50.200;8.220;2023-07-02T12:51:21;30.03;;;13.07;;
4462;SDS011;2244;50.200;8.220;2023-07-02T12:53:48;29.87;;;12.57;;
4462;SDS011;2244;50.200;8.220;2023-07-02T12:56:16;30.93;;;13.53;;
4462;SDS011;2244;50.200;8.220;2023-07-02T12:58:43;31.73;;;12.43;;
4462;SDS011;2244;50.200;8.220;2023-07-02T13:01:10;31.50;;;14.40;;
4462;SDS011;2244;50.200;8.220;2023-07-02T13:03:38;28.30;;;12.80;;
4462;SDS011;2244;50.200;8.220;2023-07-02T13:06:07;26.30;;;11.90;;
4462;SDS011;2244;50.200;8.220;2023-07-02T13:08:35;26.53;;;10.67;;
4462;SDS011;2244;50.200;8.220;2023-07-02T13:11:02;31.63;;;14.30;;
4462;SDS011;2244;50.200;8.220;2023-07-02T13:13:30;30.27;;;12.40;;
4462;SDS011;2244;50.200;8.220;2023-07-02T13:15:57;30.30;;;13.27;;
4462;SDS011;2244;50.200;8.220;2023-07-02T13:18:25;32.87;;;13.00;;
4462;SDS011;2244;50.200;8.220;2023-07-02T13:20:53;31.30;;;13.10;;
4462;SDS011;2244;50.200;8.220;2023-07-02T13:23:20;33.07;;;15.30;;
4462;SDS011;2244;50.200;8.220;2023-07-02T13:25:48;32.33;;;13.40;;
4462;SDS011;2244;50.200;8.220;2023-07-02T13:28:16;30.13;;;14.43;;
4462;SDS011;2244;50.200;8.220;2023-07-02T13:30:44;36.07;;;13.83;;
4462;SDS011;2244;50.200;8.220;2023-07-02T13:33:11;33.60;;;15.33;;
4462;SDS011;2244;50.200;8.220;2023-07-02T13:35:39;32.00;;;13.70;;
4462;SDS011;2244;50.200;8.220;2023-07-02T13:38:07;32.83;;;13.60;;
4462;SDS011;2244;50.200;8.220;2023-07-02T13:40:34;32.90;;;15.40;;
4462;SDS011;2244;50.200;8.220;2023-07-02T13:43:02;31.53;;;14.47;;
4462;SDS011;2244;50.200;8.220;2023-07-02T13:45:29;32.43;;;14.83;;
4462;SDS011;2244;50.200;8.220;2023-07-02T13:47:57;30.90;;;13.93;;
4462;SDS011;2244;50.200;8.220;2023-07-02T13:50:24;30.97;;;15.30;;
4462;SDS011;2244;50.200;8.220;2023-07-02T13:52:52;34.47;;;13.47;;
4462;SDS011;2244;50.200;8.220;2023-07-02T13:55:19;29.40;;;13.97;;
4462;SDS011;2244;50.200;8.220;2023-07-02T13:57:48;27.97;;;14.17;;
4462;SDS011;2244;50.200;8.220;2023-07-02T14:00:16;28.67;;;12.07;;
4462;SDS011;2244;50.200;8.220;2023-07-02T14:02:43;30.53;;;14.23;;
4462;SDS011;2244;50.200;8.220;2023-07-02T14:05:11;31.63;;;14.13;;
4462;SDS011;2244;50.200;8.220;2023-07-02T14:07:38;35.67;;;13.77;;
4462;SDS011;2244;50.200;8.220;2023-07-02T14:10:06;33.87;;;15.27;;
4462;SDS011;2244;50.200;8.220;2023-07-02T14:12:34;31.23;;;13.50;;
4462;SDS011;2244;50.200;8.220;2023-07-02T14:15:02;33.33;;;13.80;;
4462;SDS011;2244;50.200;8.220;2023-07-02T14:17:29;30.23;;;14.30;;
4462;SDS011;2244;50.200;8.220;2023-07-02T14:19:57;29.53;;;12.97;;
4462;SDS011;2244;50.200;8.220;2023-07-02T14:22:24;33.33;;;15.50;;
4462;SDS011;2244;50.200;8.220;2023-07-02T14:24:51;30.73;;;13.77;;
4462;SDS011;2244;50.200;8.220;2023-07-02T14:27:19;31.60;;;13.77;;
4462;SDS011;2244;50.200;8.220;2023-07-02T14:29:46;33.63;;;15.30;;
4462;SDS011;2244;50.200;8.220;2023-07-02T14:32:14;31.40;;;14.13;;
4462;SDS011;2244;50.200;8.220;2023-07-02T14:34:41;30.33;;;16.07;;
4462;SDS011;2244;50.200;8.220;2023-07-02T14:37:09;30.00;;;15.47;;
4462;SDS011;2244;50.200;8.220;2023-07-02T14:39:36;34.23;;;20.30;;
4462;SDS011;2244;50.200;8.220;2023-07-02T14:42:05;30.93;;;15.00;;
4462;SDS011;2244;50.200;8.220;2023-07-02T14:44:33;33.97;;;14.77;;
4462;SDS011;2244;50.200;8.220;2023-07-02T14:47:02;29.67;;;15.40;;
4462;SDS011;2244;50.200;8.220;2023-07-02T14:49:30;41.43;;;25.53;;
4462;SDS011;2244;50.200;8.220;2023-07-02T14:51:58;32.70;;;16.60;;
4462;SDS011;2244;50.200;8.220;2023-07-02T14:54:26;32.10;;;17.10;;
4462;SDS011;2244;50.200;8.220;2023-07-02T14:56:53;29.43;;;13.33;;